sensor_id;sensor_type;location;lat;lon;timestamp;P1;durP1;ratioP1;P2;durP2;ratioP2
24637;SDS011;12773;50.162;8.548;2023-04-25T00:02:35;12.93;;;7.53;;
24637;SDS011;12773;50.162;8.548;2023-04-25T00:05:22;14.85;;;7.80;;
24637;SDS011;12773;50.162;8.548;2023-04-25T00:08:10;11.90;;;7.10;;
24637;SDS011;12773;50.162;8.548;2023-04-25T00:10:58;12.45;;;7.47;;
24637;SDS011;12773;50.162;8.548;2023-04-25T00:13:47;11.05;;;7.17;;
24637;SDS011;12773;50.162;8.548;2023-04-25T00:16:36;11.95;;;6.85;;
24637;SDS011;12773;50.162;8.548;2023-04-25T00:19:24;13.68;;;7.72;;
24637;SDS011;12773;50.162;8.548;2023-04-25T00:22:14;13.53;;;6.65;;
24637;SDS011;12773;50.162;8.548;2023-04-25T00:25:01;11.35;;;6.72;;
24637;SDS011;12773;50.162;8.548;2023-04-25T00:27:49;12.50;;;6.65;;
24637;SDS011;12773;50.162;8.548;2023-04-25T00:30:36;10.78;;;7.00;;
24637;SDS011;12773;50.162;8.548;2023-04-25T00:33:23;13.35;;;7.10;;
24637;SDS011;12773;50.162;8.548;2023-04-25T00:36:10;9.58;;;6.30;;
24637;SDS011;12773;50.162;8.548;2023-04-25T00:38:58;10.05;;;6.05;;
24637;SDS011;12773;50.162;8.548;2023-04-25T00:41:45;11.90;;;6.45;;
24637;SDS011;12773;50.162;8.548;2023-04-25T00:44:33;11.22;;;6.58;;
24637;SDS011;12773;50.162;8.548;2023-04-25T00:47:21;9.20;;;6.05;;
24637;SDS011;12773;50.162;8.548;2023-04-25T00:50:10;13.18;;;6.97;;
24637;SDS011;12773;50.162;8.548;2023-04-25T00:52:58;12.18;;;7.28;;
24637;SDS011;12773;50.162;8.548;2023-04-25T00:55:45;11.90;;;6.40;;
24637;SDS011;12773;50.162;8.548;2023-04-25T00:58:35;12.28;;;6.37;;
24637;SDS011;12773;50.162;8.548;2023-04-25T01:01:23;9.05;;;5.40;;
24637;SDS011;12773;50.162;8.548;2023-04-25T01:04:11;11.00;;;5.22;;
24637;SDS011;12773;50.162;8.548;2023-04-25T01:07:00;8.10;;;4.87;;
24637;SDS011;12773;50.162;8.548;2023-04-25T01:09:48;9.03;;;4.80;;
24637;SDS011;12773;50.162;8.548;2023-04-25T01:12:36;8.20;;;4.92;;
24637;SDS011;12773;50.162;8.548;2023-04-25T01:15:24;6.85;;;4.60;;
24637;SDS011;12773;50.162;8.548;2023-04-25T01:18:11;7.75;;;4.72;;
24637;SDS011;12773;50.162;8.548;2023-04-25T01:21:08;8.05;;;5.35;;
24637;SDS011;12773;50.162;8.548;2023-04-25T01:23:57;9.35;;;4.90;;
24637;SDS011;12773;50.162;8.548;2023-04-25T01:26:44;7.10;;;4.62;;
24637;SDS011;12773;50.162;8.548;2023-04-25T01:29:34;7.85;;;5.17;;
24637;SDS011;12773;50.162;8.548;2023-04-25T01:32:22;8.60;;;5.00;;
24637;SDS011;12773;50.162;8.548;2023-04-25T01:35:10;13.03;;;5.80;;
24637;SDS011;12773;50.162;8.548;2023-04-25T01:37:58;10.30;;;5.92;;
24637;SDS011;12773;50.162;8.548;2023-04-25T01:40:46;9.65;;;5.30;;
24637;SDS011;12773;50.162;8.548;2023-04-25T01:43:36;14.50;;;5.75;;
24637;SDS011;12773;50.162;8.548;2023-04-25T01:46:24;9.45;;;4.90;;
24637;SDS011;12773;50.162;8.548;2023-04-25T01:49:12;8.93;;;5.20;;
24637;SDS011;12773;50.162;8.548;2023-04-25T01:51:59;10.82;;;6.12;;
24637;SDS011;12773;50.162;8.548;2023-04-25T01:54:46;9.75;;;5.83;;
24637;SDS011;12773;50.162;8.548;2023-04-25T01:57:33;9.33;;;5.87;;
24637;SDS011;12773;50.162;8.548;2023-04-25T02:00:21;10.60;;;6.25;;
24637;SDS011;12773;50.162;8.548;2023-04-25T02:03:08;10.48;;;6.62;;
24637;SDS011;12773;50.162;8.548;2023-04-25T02:05:56;8.98;;;5.70;;
24637;SDS011;12773;50.162;8.548;2023-04-25T02:08:43;13.62;;;6.45;;
24637;SDS011;12773;50.162;8.548;2023-04-25T02:11:31;13.05;;;6.25;;
24637;SDS011;12773;50.162;8.548;2023-04-25T02:14:18;10.35;;;6.00;;
24637;SDS011;12773;50.162;8.548;2023-04-25T02:17:05;8.75;;;5.95;;
24637;SDS011;12773;50.162;8.548;2023-04-25T02:19:52;14.35;;;6.55;;
24637;SDS011;12773;50.162;8.548;2023-04-25T02:22:40;15.72;;;7.28;;
24637;SDS011;12773;50.162;8.548;2023-04-25T02:25:28;12.15;;;6.45;;
24637;SDS011;12773;50.162;8.548;2023-04-25T02:28:15;12.90;;;6.83;;
24637;SDS011;12773;50.162;8.548;2023-04-25T02:31:02;14.10;;;6.85;;
24637;SDS011;12773;50.162;8.548;2023-04-25T02:33:50;10.25;;;7.12;;
24637;SDS011;12773;50.162;8.548;2023-04-25T02:36:38;11.95;;;8.00;;
24637;SDS011;12773;50.162;8.548;2023-04-25T02:39:25;12.53;;;7.17;;
24637;SDS011;12773;50.162;8.548;2023-04-25T02:42:12;14.58;;;7.50;;
24637;SDS011;12773;50.162;8.548;2023-04-25T02:45:00;14.33;;;7.60;;
24637;SDS011;12773;50.162;8.548;2023-04-25T02:47:48;14.25;;;8.33;;
24637;SDS011;12773;50.162;8.548;2023-04-25T02:50:35;12.60;;;7.90;;
24637;SDS011;12773;50.162;8.548;2023-04-25T02:53:22;12.82;;;8.18;;
24637;SDS011;12773;50.162;8.548;2023-04-25T02:56:10;11.35;;;7.42;;
24637;SDS011;12773;50.162;8.548;2023-04-25T02:58:57;13.78;;;8.35;;
24637;SDS011;12773;50.162;8.548;2023-04-25T03:01:45;14.20;;;8.73;;
24637;SDS011;12773;50.162;8.548;2023-04-25T03:04:32;15.85;;;9.15;;
24637;SDS011;12773;50.162;8.548;2023-04-25T03:07:20;14.50;;;8.70;;
24637;SDS011;12773;50.162;8.548;2023-04-25T03:10:07;14.73;;;8.48;;
24637;SDS011;12773;50.162;8.548;2023-04-25T03:12:55;14.40;;;8.33;;
24637;SDS011;12773;50.162;8.548;2023-04-25T03:15:42;13.85;;;8.58;;
24637;SDS011;12773;50.162;8.548;2023-04-25T03:18:29;15.78;;;9.48;;
24637;SDS011;12773;50.162;8.548;2023-04-25T03:21:17;20.23;;;10.05;;
24637;SDS011;12773;50.162;8.548;2023-04-25T03:24:04;18.00;;;9.40;;
24637;SDS011;12773;50.162;8.548;2023-04-25T03:26:52;19.60;;;9.70;;
24637;SDS011;12773;50.162;8.548;2023-04-25T03:29:40;19.87;;;10.10;;
24637;SDS011;12773;50.162;8.548;2023-04-25T03:32:29;13.38;;;8.13;;
24637;SDS011;12773;50.162;8.548;2023-04-25T03:35:16;18.55;;;8.05;;
24637;SDS011;12773;50.162;8.548;2023-04-25T03:38:04;15.05;;;7.90;;
24637;SDS011;12773;50.162;8.548;2023-04-25T03:40:51;13.90;;;7.05;;
24637;SDS011;12773;50.162;8.548;2023-04-25T03:43:38;15.20;;;6.90;;
24637;SDS011;12773;50.162;8.548;2023-04-25T03:46:26;22.70;;;7.37;;
24637;SDS011;12773;50.162;8.548;2023-04-25T03:49:13;14.00;;;6.33;;
24637;SDS011;12773;50.162;8.548;2023-04-25T03:52:02;17.35;;;7.25;;
24637;SDS011;12773;50.162;8.548;2023-04-25T03:54:50;13.55;;;6.72;;
24637;SDS011;12773;50.162;8.548;2023-04-25T03:57:37;15.45;;;6.12;;
24637;SDS011;12773;50.162;8.548;2023-04-25T04:00:25;16.67;;;6.12;;
24637;SDS011;12773;50.162;8.548;2023-04-25T04:03:12;13.68;;;6.45;;
24637;SDS011;12773;50.162;8.548;2023-04-25T04:06:00;16.80;;;7.37;;
24637;SDS011;12773;50.162;8.548;2023-04-25T04:08:49;12.45;;;6.83;;
24637;SDS011;12773;50.162;8.548;2023-04-25T04:11:37;11.12;;;6.10;;
24637;SDS011;12773;50.162;8.548;2023-04-25T04:14:25;12.55;;;6.08;;
24637;SDS011;12773;50.162;8.548;2023-04-25T04:17:12;13.78;;;5.62;;
24637;SDS011;12773;50.162;8.548;2023-04-25T04:20:00;13.80;;;5.90;;
24637;SDS011;12773;50.162;8.548;2023-04-25T04:22:49;16.52;;;6.45;;
24637;SDS011;12773;50.162;8.548;2023-04-25T04:25:36;13.65;;;6.40;;
24637;SDS011;12773;50.162;8.548;2023-04-25T04:28:25;12.53;;;6.10;;
24637;SDS011;12773;50.162;8.548;2023-04-25T04:31:12;15.25;;;6.80;;
24637;SDS011;12773;50.162;8.548;2023-04-25T04:34:00;13.20;;;6.60;;
24637;SDS011;12773;50.162;8.548;2023-04-25T04:36:48;14.28;;;6.65;;
24637;SDS011;12773;50.162;8.548;2023-04-25T04:39:36;15.13;;;6.47;;
24637;SDS011;12773;50.162;8.548;2023-04-25T04:42:23;13.50;;;7.03;;
24637;SDS011;12773;50.162;8.548;2023-04-25T04:45:11;17.15;;;7.22;;
24637;SDS011;12773;50.162;8.548;2023-04-25T04:47:58;13.22;;;6.83;;
24637;SDS011;12773;50.162;8.548;2023-04-25T04:50:45;19.67;;;7.00;;
24637;SDS011;12773;50.162;8.548;2023-04-25T04:53:33;13.88;;;7.30;;
24637;SDS011;12773;50.162;8.548;2023-04-25T04:56:20;17.80;;;7.65;;
24637;SDS011;12773;50.162;8.548;2023-04-25T04:59:08;14.58;;;6.87;;
24637;SDS011;12773;50.162;8.548;2023-04-25T05:01:56;12.68;;;6.67;;
24637;SDS011;12773;50.162;8.548;2023-04-25T05:04:43;14.70;;;6.90;;
24637;SDS011;12773;50.162;8.548;2023-04-25T05:07:31;11.80;;;6.78;;
24637;SDS011;12773;50.162;8.548;2023-04-25T05:10:18;14.15;;;7.10;;
24637;SDS011;12773;50.162;8.548;2023-04-25T05:13:06;15.60;;;7.50;;
24637;SDS011;12773;50.162;8.548;2023-04-25T05:15:53;17.65;;;8.08;;
24637;SDS011;12773;50.162;8.548;2023-04-25T05:18:41;20.43;;;7.92;;
24637;SDS011;12773;50.162;8.548;2023-04-25T05:21:28;15.10;;;6.95;;
24637;SDS011;12773;50.162;8.548;2023-04-25T05:24:16;14.65;;;7.22;;
24637;SDS011;12773;50.162;8.548;2023-04-25T05:27:04;20.12;;;7.22;;
24637;SDS011;12773;50.162;8.548;2023-04-25T05:29:51;15.45;;;6.95;;
24637;SDS011;12773;50.162;8.548;2023-04-25T05:32:39;17.92;;;7.40;;
24637;SDS011;12773;50.162;8.548;2023-04-25T05:35:26;15.48;;;6.95;;
24637;SDS011;12773;50.162;8.548;2023-04-25T05:38:14;17.45;;;6.78;;
24637;SDS011;12773;50.162;8.548;2023-04-25T05:41:01;14.13;;;6.55;;
24637;SDS011;12773;50.162;8.548;2023-04-25T05:43:48;12.85;;;6.55;;
24637;SDS011;12773;50.162;8.548;2023-04-25T05:46:37;14.53;;;6.17;;
24637;SDS011;12773;50.162;8.548;2023-04-25T05:49:24;11.43;;;6.10;;
24637;SDS011;12773;50.162;8.548;2023-04-25T05:52:12;14.80;;;5.50;;
24637;SDS011;12773;50.162;8.548;2023-04-25T05:55:00;9.45;;;5.10;;
24637;SDS011;12773;50.162;8.548;2023-04-25T05:57:48;13.08;;;5.22;;
24637;SDS011;12773;50.162;8.548;2023-04-25T06:00:36;15.20;;;5.45;;
24637;SDS011;12773;50.162;8.548;2023-04-25T06:03:23;11.53;;;5.17;;
24637;SDS011;12773;50.162;8.548;2023-04-25T06:06:12;14.53;;;6.15;;
24637;SDS011;12773;50.162;8.548;2023-04-25T06:09:02;13.70;;;6.05;;
24637;SDS011;12773;50.162;8.548;2023-04-25T06:11:49;13.32;;;5.70;;
24637;SDS011;12773;50.162;8.548;2023-04-25T06:14:36;14.35;;;5.42;;
24637;SDS011;12773;50.162;8.548;2023-04-25T06:17:24;14.58;;;6.05;;
24637;SDS011;12773;50.162;8.548;2023-04-25T06:20:11;11.78;;;7.03;;
24637;SDS011;12773;50.162;8.548;2023-04-25T06:22:58;15.78;;;8.10;;
24637;SDS011;12773;50.162;8.548;2023-04-25T06:25:46;11.93;;;5.80;;
24637;SDS011;12773;50.162;8.548;2023-04-25T06:28:33;17.25;;;5.97;;
24637;SDS011;12773;50.162;8.548;2023-04-25T06:31:20;12.28;;;5.85;;
24637;SDS011;12773;50.162;8.548;2023-04-25T06:34:08;11.85;;;4.75;;
24637;SDS011;12773;50.162;8.548;2023-04-25T06:36:56;16.50;;;5.00;;
24637;SDS011;12773;50.162;8.548;2023-04-25T06:39:43;11.00;;;5.28;;
24637;SDS011;12773;50.162;8.548;2023-04-25T06:42:30;10.85;;;5.65;;
24637;SDS011;12773;50.162;8.548;2023-04-25T06:45:17;13.80;;;5.97;;
24637;SDS011;12773;50.162;8.548;2023-04-25T06:48:05;20.50;;;6.97;;
24637;SDS011;12773;50.162;8.548;2023-04-25T06:50:52;17.70;;;7.60;;
24637;SDS011;12773;50.162;8.548;2023-04-25T06:53:40;12.78;;;6.65;;
24637;SDS011;12773;50.162;8.548;2023-04-25T06:56:28;15.68;;;6.47;;
24637;SDS011;12773;50.162;8.548;2023-04-25T06:59:16;14.65;;;6.55;;
24637;SDS011;12773;50.162;8.548;2023-04-25T07:02:03;18.00;;;6.50;;
24637;SDS011;12773;50.162;8.548;2023-04-25T07:04:51;11.50;;;5.50;;
24637;SDS011;12773;50.162;8.548;2023-04-25T07:07:39;13.18;;;5.80;;
24637;SDS011;12773;50.162;8.548;2023-04-25T07:10:26;9.45;;;5.37;;
24637;SDS011;12773;50.162;8.548;2023-04-25T07:13:14;10.90;;;5.05;;
24637;SDS011;12773;50.162;8.548;2023-04-25T07:16:02;10.72;;;4.60;;
24637;SDS011;12773;50.162;8.548;2023-04-25T07:18:53;15.48;;;5.12;;
24637;SDS011;12773;50.162;8.548;2023-04-25T07:21:41;8.00;;;4.28;;
24637;SDS011;12773;50.162;8.548;2023-04-25T07:24:28;13.75;;;4.42;;
24637;SDS011;12773;50.162;8.548;2023-04-25T07:27:15;9.73;;;4.40;;
24637;SDS011;12773;50.162;8.548;2023-04-25T07:30:03;14.53;;;4.20;;
24637;SDS011;12773;50.162;8.548;2023-04-25T07:32:50;7.42;;;4.30;;
24637;SDS011;12773;50.162;8.548;2023-04-25T07:35:38;8.18;;;4.08;;
24637;SDS011;12773;50.162;8.548;2023-04-25T07:38:25;7.78;;;2.98;;
24637;SDS011;12773;50.162;8.548;2023-04-25T07:41:12;5.70;;;2.60;;
24637;SDS011;12773;50.162;8.548;2023-04-25T07:44:00;6.00;;;3.10;;
24637;SDS011;12773;50.162;8.548;2023-04-25T07:46:47;7.45;;;2.92;;
24637;SDS011;12773;50.162;8.548;2023-04-25T07:49:34;5.87;;;2.60;;
24637;SDS011;12773;50.162;8.548;2023-04-25T07:52:22;9.35;;;3.00;;
24637;SDS011;12773;50.162;8.548;2023-04-25T07:55:09;7.55;;;2.75;;
24637;SDS011;12773;50.162;8.548;2023-04-25T07:57:56;4.80;;;2.25;;
24637;SDS011;12773;50.162;8.548;2023-04-25T08:00:43;4.10;;;2.27;;
24637;SDS011;12773;50.162;8.548;2023-04-25T08:03:31;7.33;;;2.40;;
24637;SDS011;12773;50.162;8.548;2023-04-25T08:06:20;6.67;;;2.30;;
24637;SDS011;12773;50.162;8.548;2023-04-25T08:09:07;8.48;;;2.87;;
24637;SDS011;12773;50.162;8.548;2023-04-25T08:11:55;3.33;;;2.22;;
24637;SDS011;12773;50.162;8.548;2023-04-25T08:14:42;6.87;;;2.27;;
24637;SDS011;12773;50.162;8.548;2023-04-25T08:17:29;8.63;;;2.17;;
24637;SDS011;12773;50.162;8.548;2023-04-25T08:20:17;6.20;;;2.50;;
24637;SDS011;12773;50.162;8.548;2023-04-25T08:23:04;8.73;;;2.37;;
24637;SDS011;12773;50.162;8.548;2023-04-25T08:25:52;9.28;;;3.00;;
24637;SDS011;12773;50.162;8.548;2023-04-25T08:28:39;5.10;;;2.67;;
24637;SDS011;12773;50.162;8.548;2023-04-25T08:31:26;3.77;;;2.50;;
24637;SDS011;12773;50.162;8.548;2023-04-25T08:34:13;4.65;;;2.40;;
24637;SDS011;12773;50.162;8.548;2023-04-25T08:37:01;8.05;;;3.15;;
24637;SDS011;12773;50.162;8.548;2023-04-25T08:39:49;9.58;;;3.10;;
24637;SDS011;12773;50.162;8.548;2023-04-25T08:42:38;6.70;;;3.30;;
24637;SDS011;12773;50.162;8.548;2023-04-25T08:45:31;7.17;;;3.65;;
24637;SDS011;12773;50.162;8.548;2023-04-25T08:48:23;10.55;;;3.12;;
24637;SDS011;12773;50.162;8.548;2023-04-25T08:51:37;4.87;;;2.90;;
24637;SDS011;12773;50.162;8.548;2023-04-25T08:54:44;3.40;;;2.40;;
24637;SDS011;12773;50.162;8.548;2023-04-25T08:57:48;7.08;;;3.10;;
24637;SDS011;12773;50.162;8.548;2023-04-25T09:00:36;7.80;;;3.20;;
24637;SDS011;12773;50.162;8.548;2023-04-25T09:03:23;7.50;;;4.15;;
24637;SDS011;12773;50.162;8.548;2023-04-25T09:06:11;7.30;;;3.80;;
24637;SDS011;12773;50.162;8.548;2023-04-25T09:09:04;5.92;;;3.80;;
24637;SDS011;12773;50.162;8.548;2023-04-25T09:11:54;8.48;;;3.27;;
24637;SDS011;12773;50.162;8.548;2023-04-25T09:14:41;7.55;;;3.17;;
24637;SDS011;12773;50.162;8.548;2023-04-25T09:17:29;6.65;;;3.20;;
24637;SDS011;12773;50.162;8.548;2023-04-25T09:20:16;7.60;;;3.05;;
24637;SDS011;12773;50.162;8.548;2023-04-25T09:23:04;5.30;;;2.60;;
24637;SDS011;12773;50.162;8.548;2023-04-25T09:25:53;5.17;;;2.95;;
24637;SDS011;12773;50.162;8.548;2023-04-25T09:28:40;11.68;;;3.85;;
24637;SDS011;12773;50.162;8.548;2023-04-25T09:31:31;7.90;;;3.33;;
24637;SDS011;12773;50.162;8.548;2023-04-25T09:34:20;8.40;;;3.20;;
24637;SDS011;12773;50.162;8.548;2023-04-25T09:37:08;7.95;;;3.22;;
24637;SDS011;12773;50.162;8.548;2023-04-25T09:39:57;6.50;;;2.95;;
24637;SDS011;12773;50.162;8.548;2023-04-25T09:42:50;9.60;;;2.72;;
24637;SDS011;12773;50.162;8.548;2023-04-25T09:45:43;9.35;;;3.50;;
24637;SDS011;12773;50.162;8.548;2023-04-25T09:48:31;7.87;;;3.40;;
24637;SDS011;12773;50.162;8.548;2023-04-25T09:51:18;10.20;;;4.05;;
24637;SDS011;12773;50.162;8.548;2023-04-25T09:54:06;6.60;;;3.22;;
24637;SDS011;12773;50.162;8.548;2023-04-25T09:56:53;6.83;;;3.20;;
24637;SDS011;12773;50.162;8.548;2023-04-25T09:59:49;6.55;;;3.52;;
24637;SDS011;12773;50.162;8.548;2023-04-25T10:02:33;4.85;;;3.08;;
24637;SDS011;12773;50.162;8.548;2023-04-25T10:05:22;6.78;;;3.58;;
24637;SDS011;12773;50.162;8.548;2023-04-25T10:08:10;8.43;;;3.40;;
24637;SDS011;12773;50.162;8.548;2023-04-25T10:11:00;5.97;;;3.00;;
24637;SDS011;12773;50.162;8.548;2023-04-25T10:13:48;6.80;;;2.98;;
24637;SDS011;12773;50.162;8.548;2023-04-25T10:16:36;7.47;;;3.02;;
24637;SDS011;12773;50.162;8.548;2023-04-25T10:19:26;6.37;;;3.20;;
24637;SDS011;12773;50.162;8.548;2023-04-25T10:22:20;9.48;;;4.03;;
24637;SDS011;12773;50.162;8.548;2023-04-25T10:25:05;6.20;;;3.33;;
24637;SDS011;12773;50.162;8.548;2023-04-25T10:27:53;7.70;;;3.27;;
24637;SDS011;12773;50.162;8.548;2023-04-25T10:30:56;8.53;;;3.00;;
24637;SDS011;12773;50.162;8.548;2023-04-25T10:33:48;6.95;;;3.77;;
24637;SDS011;12773;50.162;8.548;2023-04-25T10:36:36;8.78;;;3.83;;
24637;SDS011;12773;50.162;8.548;2023-04-25T10:39:24;7.90;;;3.70;;
24637;SDS011;12773;50.162;8.548;2023-04-25T10:42:13;7.08;;;4.03;;
24637;SDS011;12773;50.162;8.548;2023-04-25T10:45:02;6.30;;;3.45;;
24637;SDS011;12773;50.162;8.548;2023-04-25T10:47:53;9.28;;;3.40;;
24637;SDS011;12773;50.162;8.548;2023-04-25T10:50:41;9.40;;;3.50;;
24637;SDS011;12773;50.162;8.548;2023-04-25T10:53:30;6.30;;;3.30;;
24637;SDS011;12773;50.162;8.548;2023-04-25T10:56:19;15.63;;;3.05;;
24637;SDS011;12773;50.162;8.548;2023-04-25T10:59:08;9.78;;;3.20;;
24637;SDS011;12773;50.162;8.548;2023-04-25T11:01:56;9.93;;;3.08;;
24637;SDS011;12773;50.162;8.548;2023-04-25T11:04:44;12.53;;;3.52;;
24637;SDS011;12773;50.162;8.548;2023-04-25T11:07:34;6.97;;;3.02;;
24637;SDS011;12773;50.162;8.548;2023-04-25T11:10:42;6.97;;;2.92;;
24637;SDS011;12773;50.162;8.548;2023-04-25T11:13:30;6.72;;;2.83;;
24637;SDS011;12773;50.162;8.548;2023-04-25T11:16:18;5.20;;;2.62;;
24637;SDS011;12773;50.162;8.548;2023-04-25T11:19:07;6.67;;;2.77;;
24637;SDS011;12773;50.162;8.548;2023-04-25T11:21:55;6.85;;;2.75;;
24637;SDS011;12773;50.162;8.548;2023-04-25T11:24:43;8.00;;;2.90;;
24637;SDS011;12773;50.162;8.548;2023-04-25T11:27:32;5.83;;;2.62;;
24637;SDS011;12773;50.162;8.548;2023-04-25T11:30:20;9.15;;;3.22;;
24637;SDS011;12773;50.162;8.548;2023-04-25T11:33:09;8.45;;;2.52;;
24637;SDS011;12773;50.162;8.548;2023-04-25T11:35:56;6.90;;;2.30;;
24637;SDS011;12773;50.162;8.548;2023-04-25T11:38:43;7.70;;;2.70;;
24637;SDS011;12773;50.162;8.548;2023-04-25T11:41:31;7.37;;;2.20;;
24637;SDS011;12773;50.162;8.548;2023-04-25T11:44:19;5.70;;;2.52;;
24637;SDS011;12773;50.162;8.548;2023-04-25T11:47:12;7.95;;;2.58;;
24637;SDS011;12773;50.162;8.548;2023-04-25T11:49:57;5.97;;;2.70;;
24637;SDS011;12773;50.162;8.548;2023-04-25T11:52:46;5.87;;;2.33;;
24637;SDS011;12773;50.162;8.548;2023-04-25T11:55:34;8.90;;;2.27;;
24637;SDS011;12773;50.162;8.548;2023-04-25T11:58:22;8.40;;;2.65;;
24637;SDS011;12773;50.162;8.548;2023-04-25T12:01:10;6.92;;;2.85;;
24637;SDS011;12773;50.162;8.548;2023-04-25T12:03:57;7.92;;;3.10;;
24637;SDS011;12773;50.162;8.548;2023-04-25T12:06:46;8.03;;;2.62;;
24637;SDS011;12773;50.162;8.548;2023-04-25T12:09:34;9.50;;;2.75;;
24637;SDS011;12773;50.162;8.548;2023-04-25T12:12:21;8.55;;;2.98;;
24637;SDS011;12773;50.162;8.548;2023-04-25T12:15:16;11.45;;;2.60;;
24637;SDS011;12773;50.162;8.548;2023-04-25T12:18:05;8.78;;;2.72;;
24637;SDS011;12773;50.162;8.548;2023-04-25T12:20:53;7.35;;;2.60;;
24637;SDS011;12773;50.162;8.548;2023-04-25T12:23:40;9.03;;;2.50;;
24637;SDS011;12773;50.162;8.548;2023-04-25T12:26:45;10.00;;;2.90;;
24637;SDS011;12773;50.162;8.548;2023-04-25T12:29:22;10.82;;;3.50;;
24637;SDS011;12773;50.162;8.548;2023-04-25T12:32:11;9.85;;;2.65;;
24637;SDS011;12773;50.162;8.548;2023-04-25T12:34:59;9.28;;;2.77;;
24637;SDS011;12773;50.162;8.548;2023-04-25T12:37:46;7.87;;;2.60;;
24637;SDS011;12773;50.162;8.548;2023-04-25T12:40:34;7.90;;;2.40;;
24637;SDS011;12773;50.162;8.548;2023-04-25T12:43:21;7.08;;;2.70;;
24637;SDS011;12773;50.162;8.548;2023-04-25T12:46:08;5.33;;;2.12;;
24637;SDS011;12773;50.162;8.548;2023-04-25T12:48:56;7.50;;;2.62;;
24637;SDS011;12773;50.162;8.548;2023-04-25T12:51:44;8.98;;;2.58;;
24637;SDS011;12773;50.162;8.548;2023-04-25T12:54:32;5.83;;;2.17;;
24637;SDS011;12773;50.162;8.548;2023-04-25T12:57:19;9.13;;;2.62;;
24637;SDS011;12773;50.162;8.548;2023-04-25T13:00:06;11.15;;;3.00;;
24637;SDS011;12773;50.162;8.548;2023-04-25T13:02:56;5.00;;;2.45;;
24637;SDS011;12773;50.162;8.548;2023-04-25T13:05:43;8.33;;;2.92;;
24637;SDS011;12773;50.162;8.548;2023-04-25T13:08:31;7.70;;;3.50;;
24637;SDS011;12773;50.162;8.548;2023-04-25T13:11:18;11.45;;;2.80;;
24637;SDS011;12773;50.162;8.548;2023-04-25T13:14:05;8.15;;;3.10;;
24637;SDS011;12773;50.162;8.548;2023-04-25T13:16:53;7.85;;;3.17;;
24637;SDS011;12773;50.162;8.548;2023-04-25T13:19:40;9.20;;;2.75;;
24637;SDS011;12773;50.162;8.548;2023-04-25T13:22:28;6.92;;;2.87;;
24637;SDS011;12773;50.162;8.548;2023-04-25T13:25:15;11.78;;;3.42;;
24637;SDS011;12773;50.162;8.548;2023-04-25T13:28:03;9.05;;;2.83;;
24637;SDS011;12773;50.162;8.548;2023-04-25T13:30:50;9.88;;;2.70;;
24637;SDS011;12773;50.162;8.548;2023-04-25T13:33:37;7.55;;;2.85;;
24637;SDS011;12773;50.162;8.548;2023-04-25T13:36:24;8.58;;;2.62;;
24637;SDS011;12773;50.162;8.548;2023-04-25T13:39:13;5.62;;;2.62;;
24637;SDS011;12773;50.162;8.548;2023-04-25T13:42:00;7.37;;;2.40;;
24637;SDS011;12773;50.162;8.548;2023-04-25T13:44:48;10.82;;;2.67;;
24637;SDS011;12773;50.162;8.548;2023-04-25T13:47:35;5.65;;;2.30;;
24637;SDS011;12773;50.162;8.548;2023-04-25T13:50:22;7.75;;;2.70;;
24637;SDS011;12773;50.162;8.548;2023-04-25T13:53:11;6.80;;;2.42;;
24637;SDS011;12773;50.162;8.548;2023-04-25T13:55:58;9.18;;;2.02;;
24637;SDS011;12773;50.162;8.548;2023-04-25T13:58:46;5.58;;;2.25;;
24637;SDS011;12773;50.162;8.548;2023-04-25T14:01:33;7.80;;;2.27;;
24637;SDS011;12773;50.162;8.548;2023-04-25T14:04:21;4.20;;;1.77;;
24637;SDS011;12773;50.162;8.548;2023-04-25T14:07:08;8.65;;;1.90;;
24637;SDS011;12773;50.162;8.548;2023-04-25T14:09:56;6.75;;;1.87;;
24637;SDS011;12773;50.162;8.548;2023-04-25T14:12:43;4.47;;;1.50;;
24637;SDS011;12773;50.162;8.548;2023-04-25T14:15:33;5.78;;;1.80;;
24637;SDS011;12773;50.162;8.548;2023-04-25T14:18:20;4.78;;;1.80;;
24637;SDS011;12773;50.162;8.548;2023-04-25T14:21:08;5.47;;;1.52;;
24637;SDS011;12773;50.162;8.548;2023-04-25T14:23:56;5.47;;;1.70;;
24637;SDS011;12773;50.162;8.548;2023-04-25T14:26:45;7.55;;;1.92;;
24637;SDS011;12773;50.162;8.548;2023-04-25T14:29:32;9.33;;;2.10;;
24637;SDS011;12773;50.162;8.548;2023-04-25T14:32:21;6.05;;;1.85;;
24637;SDS011;12773;50.162;8.548;2023-04-25T14:35:08;7.75;;;1.87;;
24637;SDS011;12773;50.162;8.548;2023-04-25T14:37:55;6.10;;;1.95;;
24637;SDS011;12773;50.162;8.548;2023-04-25T14:40:43;8.35;;;2.00;;
24637;SDS011;12773;50.162;8.548;2023-04-25T14:43:30;6.45;;;2.08;;
24637;SDS011;12773;50.162;8.548;2023-04-25T14:46:17;5.10;;;1.67;;
24637;SDS011;12773;50.162;8.548;2023-04-25T14:49:06;7.03;;;1.85;;
24637;SDS011;12773;50.162;8.548;2023-04-25T14:51:53;6.55;;;2.22;;
24637;SDS011;12773;50.162;8.548;2023-04-25T14:54:41;7.78;;;2.00;;
24637;SDS011;12773;50.162;8.548;2023-04-25T14:57:28;6.72;;;2.00;;
24637;SDS011;12773;50.162;8.548;2023-04-25T15:00:16;5.65;;;1.70;;
24637;SDS011;12773;50.162;8.548;2023-04-25T15:03:04;5.00;;;1.85;;
24637;SDS011;12773;50.162;8.548;2023-04-25T15:05:54;7.42;;;2.27;;
24637;SDS011;12773;50.162;8.548;2023-04-25T15:08:42;7.83;;;2.20;;
24637;SDS011;12773;50.162;8.548;2023-04-25T15:11:29;7.17;;;2.25;;
24637;SDS011;12773;50.162;8.548;2023-04-25T15:14:16;6.17;;;2.40;;
24637;SDS011;12773;50.162;8.548;2023-04-25T15:17:04;7.75;;;1.90;;
24637;SDS011;12773;50.162;8.548;2023-04-25T15:19:52;4.40;;;1.98;;
24637;SDS011;12773;50.162;8.548;2023-04-25T15:22:42;6.80;;;2.12;;
24637;SDS011;12773;50.162;8.548;2023-04-25T15:25:31;11.03;;;1.82;;
24637;SDS011;12773;50.162;8.548;2023-04-25T15:28:19;6.20;;;2.15;;
24637;SDS011;12773;50.162;8.548;2023-04-25T15:31:06;7.45;;;2.52;;
24637;SDS011;12773;50.162;8.548;2023-04-25T15:33:54;5.95;;;1.90;;
24637;SDS011;12773;50.162;8.548;2023-04-25T15:36:41;9.70;;;1.65;;
24637;SDS011;12773;50.162;8.548;2023-04-25T15:39:29;5.90;;;1.90;;
24637;SDS011;12773;50.162;8.548;2023-04-25T15:42:17;6.12;;;1.82;;
24637;SDS011;12773;50.162;8.548;2023-04-25T15:45:06;6.33;;;1.82;;
24637;SDS011;12773;50.162;8.548;2023-04-25T15:47:55;7.67;;;1.90;;
24637;SDS011;12773;50.162;8.548;2023-04-25T15:50:42;9.00;;;1.80;;
24637;SDS011;12773;50.162;8.548;2023-04-25T15:53:30;6.37;;;1.60;;
24637;SDS011;12773;50.162;8.548;2023-04-25T15:56:17;5.50;;;1.70;;
24637;SDS011;12773;50.162;8.548;2023-04-25T15:59:04;4.62;;;1.70;;
24637;SDS011;12773;50.162;8.548;2023-04-25T16:01:52;6.25;;;1.85;;
24637;SDS011;12773;50.162;8.548;2023-04-25T16:04:39;8.58;;;1.77;;
24637;SDS011;12773;50.162;8.548;2023-04-25T16:07:27;6.62;;;1.55;;
24637;SDS011;12773;50.162;8.548;2023-04-25T16:10:14;8.55;;;1.87;;
24637;SDS011;12773;50.162;8.548;2023-04-25T16:13:07;7.22;;;1.50;;
24637;SDS011;12773;50.162;8.548;2023-04-25T16:15:55;8.28;;;2.02;;
24637;SDS011;12773;50.162;8.548;2023-04-25T16:18:42;5.40;;;1.60;;
24637;SDS011;12773;50.162;8.548;2023-04-25T16:21:30;6.78;;;1.80;;
24637;SDS011;12773;50.162;8.548;2023-04-25T16:24:17;5.40;;;1.90;;
24637;SDS011;12773;50.162;8.548;2023-04-25T16:27:05;7.17;;;1.55;;
24637;SDS011;12773;50.162;8.548;2023-04-25T16:29:53;8.48;;;1.77;;
24637;SDS011;12773;50.162;8.548;2023-04-25T16:32:41;4.80;;;1.80;;
24637;SDS011;12773;50.162;8.548;2023-04-25T16:35:30;8.60;;;1.85;;
24637;SDS011;12773;50.162;8.548;2023-04-25T16:38:18;9.30;;;1.72;;
24637;SDS011;12773;50.162;8.548;2023-04-25T16:41:06;9.75;;;1.92;;
24637;SDS011;12773;50.162;8.548;2023-04-25T16:43:53;6.47;;;1.50;;
24637;SDS011;12773;50.162;8.548;2023-04-25T16:46:40;4.65;;;1.62;;
24637;SDS011;12773;50.162;8.548;2023-04-25T16:49:28;10.38;;;2.55;;